Frontier Kotobuki — 3EXC5 — position and weather

sailwx.info

Track history (hours):
 
Tides and Currents Weather Stations Pressure Air Temp Water Temp Dewpoint Dewpoint Depression Visibility Wind Speed Wind Dir Waves Ship Positions

Frontier Kotobuki

Last reported at 2014-Sep-02 14:25 UTC. Time now 2014-Sep-03 02:21 UTC.
Position S 32°46' E 017°44'.

Length 290 m; draft 10.5 m.

Type: Cargo ship. MMSI: 355036000.

Date/timePositionNaut miles runAvg speedWind from/ knotsBaromVisibWave heightAir tempDewpointWater temp
2014-Sep-02 14:25S 32°46' E 017°44'  
2014-Aug-28 09:21S 33°42' E 017°59'2010.9
2014-Aug-28 07:32S 34°01' E 018°04'9 9.5
2014-Aug-28 06:33S 34°10' E 018°07'1010.5
2014-Aug-28 05:33S 34°20' E 018°10'8 8.3
2014-Aug-28 04:33S 34°25' E 018°19'9 8.4
2014-Aug-28 03:29S 34°29' E 018°29'8 8.1
2014-Aug-28 02:33S 34°31' E 018°37'9 8.8
2014-Aug-28 01:33S 34°35' E 018°47'9 8.8
2014-Aug-28 00:33S 34°38' E 018°57'9 8.6
2014-Aug-27 23:33S 34°42' E 019°07'9 9.1
2014-Aug-27 22:31S 34°45' E 019°17'9 9.2
2014-Aug-27 21:33S 34°49' E 019°27'30 9.2
2014-Aug-27 18:18S 34°60' E 020°01'8 9.6
2014-Aug-27 17:29S 34°58' E 020°11'9 9.7
2014-Aug-27 16:33S 34°56' E 020°21'10 9.5
2014-Aug-27 15:30S 34°54' E 020°33'10 9.7
2014-Aug-27 14:26S 34°52' E 020°46'5110.0
2014-Aug-27 09:18S 34°45' E 021°48'15311.1
2014-Aug-26 19:28S 34°21' E 024°52'2512.1
2014-Aug-26 17:26S 34°17' E 025°21'1112.4
2014-Aug-26 16:32S 34°14' E 025°34'7213.3
2014-Aug-26 11:06S 34°00' E 026°60'2514.1
2014-Aug-26 09:21S 33°44' E 027°22'1513.9
2014-Aug-26 08:18S 33°34' E 027°35'3713.4
2014-Aug-26 05:33S 33°09' E 028°07'7812.1
2014-Aug-25 23:07S 32°18' E 029°16'7813.7
2014-Aug-25 17:26S 31°21' E 030°20'7713.1
2014-Aug-25 11:32S 30°25' E 031°21'1312.1
2014-Aug-25 10:29S 30°15' E 031°31'1111.4
2014-Aug-25 09:32S 30°07' E 031°39'1111.1
2014-Aug-25 08:33S 29°59' E 031°47'1110.8
2014-Aug-25 07:33S 29°50' E 031°54'  
Track history (hours):
 
Tides and Currents Weather Stations Pressure Air Temp Water Temp Dewpoint Dewpoint Depression Visibility Wind Speed Wind Dir Waves Ship Positions

Frontier Kotobuki

Last reported at 2014-Sep-02 14:25 UTC. Time now 2014-Sep-03 02:21 UTC.
Position S 32°46' E 017°44'.

Length 290 m; draft 10.5 m.

Type: Cargo ship. MMSI: 355036000.

Date/timePositionNaut miles runAvg speedWind from/ knotsBaromVisibWave heightAir tempDewpointWater temp
2014-Sep-02 14:25S 32°46' E 017°44'  
2014-Aug-28 09:21S 33°42' E 017°59'2010.9
2014-Aug-28 07:32S 34°01' E 018°04'9 9.5
2014-Aug-28 06:33S 34°10' E 018°07'1010.5
2014-Aug-28 05:33S 34°20' E 018°10'8 8.3
2014-Aug-28 04:33S 34°25' E 018°19'9 8.4
2014-Aug-28 03:29S 34°29' E 018°29'8 8.1
2014-Aug-28 02:33S 34°31' E 018°37'9 8.8
2014-Aug-28 01:33S 34°35' E 018°47'9 8.8
2014-Aug-28 00:33S 34°38' E 018°57'9 8.6
2014-Aug-27 23:33S 34°42' E 019°07'9 9.1
2014-Aug-27 22:31S 34°45' E 019°17'9 9.2
2014-Aug-27 21:33S 34°49' E 019°27'30 9.2
2014-Aug-27 18:18S 34°60' E 020°01'8 9.6
2014-Aug-27 17:29S 34°58' E 020°11'9 9.7
2014-Aug-27 16:33S 34°56' E 020°21'10 9.5
2014-Aug-27 15:30S 34°54' E 020°33'10 9.7
2014-Aug-27 14:26S 34°52' E 020°46'5110.0
2014-Aug-27 09:18S 34°45' E 021°48'15311.1
2014-Aug-26 19:28S 34°21' E 024°52'2512.1
2014-Aug-26 17:26S 34°17' E 025°21'1112.4
2014-Aug-26 16:32S 34°14' E 025°34'7213.3
2014-Aug-26 11:06S 34°00' E 026°60'2514.1
2014-Aug-26 09:21S 33°44' E 027°22'1513.9
2014-Aug-26 08:18S 33°34' E 027°35'3713.4
2014-Aug-26 05:33S 33°09' E 028°07'7812.1
2014-Aug-25 23:07S 32°18' E 029°16'7813.7
2014-Aug-25 17:26S 31°21' E 030°20'7713.1
2014-Aug-25 11:32S 30°25' E 031°21'1312.1
2014-Aug-25 10:29S 30°15' E 031°31'1111.4
2014-Aug-25 09:32S 30°07' E 031°39'1111.1
2014-Aug-25 08:33S 29°59' E 031°47'1110.8
2014-Aug-25 07:33S 29°50' E 031°54'  

Dump ship's entire track history